| time (UTC) | temp F | wind direction | speed MPH | gust MPH | rain 1hr in | rain 24hr in | rain mn in | humidity % | barometer mb |
| 20260508124004 | 67 | 22 | 3.0 | 6.0 | 0.00 | 0.00 | 0.00 | 84 | 1001.8 |
| 20260508122806 | 66 | 73 | 3.0 | 6.0 | 0.00 | 0.00 | 0.00 | 95 | 1001.7 |
| 20260508121606 | 66 | 293 | 2.0 | 3.0 | 0.00 | 0.00 | 0.00 | 94 | 1001.6 |
| 20260508120404 | 67 | 188 | 2.0 | 3.0 | 0.00 | 0.00 | 0.00 | 94 | 1001.7 |
| 20260508115204 | 67 | 325 | 1.0 | 2.0 | 0.00 | 0.00 | 0.00 | 94 | 1001.5 |
| 20260508114006 | 67 | 189 | 1.0 | 1.0 | 0.00 | 0.00 | 0.00 | 93 | 1001.5 |
| 20260508112806 | 67 | 253 | 1.0 | 2.0 | 0.00 | 0.00 | 0.00 | 93 | 1001.3 |
| 20260508111604 | 68 | 286 | 0.0 | 1.0 | 0.00 | 0.00 | 0.00 | 92 | 1001.2 |
| 20260508110406 | 68 | 208 | 1.0 | 2.0 | 0.00 | 0.00 | 0.00 | 91 | 1001.2 |
| 20260508105206 | 68 | 248 | 0.0 | 1.0 | 0.00 | 0.00 | 0.00 | 91 | 1001.2 |
| 20260508104005 | 68 | 296 | 1.0 | 2.0 | 0.00 | 0.00 | 0.00 | 92 | 1001.0 |
| 20260508102805 | 69 | 209 | 2.0 | 2.0 | 0.00 | 0.00 | 0.00 | 91 | 1001.1 |
| 20260508101606 | 69 | 260 | 1.0 | 3.0 | 0.00 | 0.00 | 0.00 | 91 | 1000.9 |
| 20260508100404 | 69 | 215 | 3.0 | 3.0 | 0.00 | 0.00 | 0.00 | 91 | 1000.7 |
| 20260508095205 | 70 | 249 | 0.0 | 0.0 | 0.00 | 0.00 | 0.00 | 89 | 1000.6 |
| 20260508094005 | 70 | 303 | 1.0 | 1.0 | 0.00 | 0.00 | 0.00 | 89 | 1000.7 |
| 20260508092806 | 71 | 227 | 1.0 | 1.0 | 0.00 | 0.00 | 0.00 | 87 | 1000.5 |
| 20260508091608 | 71 | 226 | 0.0 | 0.0 | 0.00 | 0.00 | 0.00 | 86 | 1000.7 |
| 20260508090404 | 72 | 226 | 1.0 | 2.0 | 0.00 | 0.00 | 0.00 | 85 | 1000.8 |
| 20260508085205 | 72 | 251 | 0.0 | 1.0 | 0.00 | 0.00 | 0.00 | 83 | 1000.3 |
| 20260508084007 | 73 | 351 | 0.0 | 1.0 | 0.00 | 0.00 | 0.00 | 82 | 1000.5 |
| 20260508082805 | 73 | 330 | 2.0 | 5.0 | 0.00 | 0.00 | 0.00 | 81 | 1000.8 |
| 20260508081604 | 73 | 336 | 3.0 | 7.0 | 0.00 | 0.00 | 0.00 | 81 | 1000.8 |
| 20260508080405 | 73 | 315 | 1.0 | 1.0 | 0.00 | 0.00 | 0.00 | 79 | 1000.6 |
| 20260508075203 | 74 | 306 | 0.0 | 0.0 | 0.00 | 0.00 | 0.00 | 78 | 1000.6 |
| 20260508074005 | 74 | 328 | 2.0 | 3.0 | 0.00 | 0.00 | 0.00 | 78 | 1000.6 |
| 20260508072807 | 74 | 48 | 0.0 | 2.0 | 0.00 | 0.00 | 0.00 | 77 | 1000.9 |
| 20260508071605 | 75 | 45 | 1.0 | 3.0 | 0.00 | 0.00 | 0.00 | 75 | 1001.1 |
| 20260508070404 | 75 | 356 | 2.0 | 5.0 | 0.00 | 0.00 | 0.00 | 77 | 1001.1 |
| 20260508065205 | 75 | 356 | 1.0 | 2.0 | 0.00 | 0.00 | 0.00 | 77 | 1001.7 |
| 20260508064004 | 73 | 298 | 2.0 | 5.0 | 0.00 | 0.00 | 0.00 | 79 | 1001.6 |
| 20260508062804 | 74 | 39 | 0.0 | 0.0 | 0.00 | 0.00 | 0.00 | 76 | 1001.8 |
| 20260508061604 | 74 | 24 | 1.0 | 2.0 | 0.00 | 0.00 | 0.00 | 77 | 1001.8 |
| 20260508060405 | 73 | 43 | 2.0 | 5.0 | 0.00 | 0.00 | 0.00 | 78 | 1001.9 |
| 20260508055204 | 73 | 21 | 0.0 | 2.0 | 0.00 | 0.00 | 0.00 | 78 | 1002.3 |
| 20260508054005 | 73 | 11 | 5.0 | 6.0 | 0.00 | 0.00 | 0.00 | 78 | 1002.1 |
| 20260508052803 | 73 | 77 | 9.0 | 12.0 | 0.00 | 0.00 | 0.00 | 77 | 1002.3 |
| 20260508051605 | 72 | 10 | 1.0 | 2.0 | 0.00 | 0.00 | 0.00 | 80 | 1002.7 |
| 20260508050403 | 74 | 81 | 1.0 | 2.0 | 0.00 | 0.00 | 0.00 | 78 | 1003.0 |
| 20260508045204 | 72 | 298 | 2.0 | 5.0 | 0.00 | 0.00 | 0.00 | 83 | 1003.1 |
| 20260508044004 | 71 | 97 | 0.0 | 2.0 | 0.00 | 0.00 | 0.00 | 82 | 1003.3 |
| 20260508042803 | 71 | 83 | 3.0 | 5.0 | 0.00 | 0.00 | 0.00 | 83 | 1003.6 |
| 20260508041604 | 72 | 354 | 0.0 | 1.0 | 0.00 | 0.00 | 0.00 | 82 | 1003.7 |
| 20260508040405 | 72 | 26 | 1.0 | 2.0 | 0.00 | 0.00 | 0.00 | 82 | 1003.9 |
| 20260508035204 | 73 | 31 | 2.0 | 3.0 | 0.00 | 0.00 | 0.00 | 81 | 1004.0 |
| 20260508034007 | 72 | 16 | 1.0 | 3.0 | 0.00 | 0.00 | 0.00 | 83 | 1004.2 |
| 20260508032805 | 72 | 29 | 3.0 | 8.0 | 0.00 | 0.00 | 0.00 | 84 | 1004.7 |
| 20260508031604 | 71 | 47 | 6.0 | 9.0 | 0.00 | 0.00 | 0.00 | 85 | 1005.0 |
| 20260508030405 | 71 | 77 | 3.0 | 5.0 | 0.00 | 0.00 | 0.00 | 84 | 1005.3 |
| 20260508025204 | 71 | 22 | 3.0 | 6.0 | 0.00 | 0.00 | 0.00 | 83 | 1005.4 |
| 20260508024004 | 71 | 86 | 5.0 | 7.0 | 0.00 | 0.00 | 0.00 | 83 | 1005.4 |
| 20260508022807 | 71 | 60 | 2.0 | 5.0 | 0.00 | 0.00 | 0.00 | 82 | 1005.7 |
| 20260508021605 | 71 | 19 | 3.0 | 6.0 | 0.00 | 0.00 | 0.00 | 82 | 1005.6 |
| 20260508020404 | 71 | 36 | 2.0 | 3.0 | 0.00 | 0.00 | 0.00 | 83 | 1005.7 |
| 20260508015205 | 70 | 85 | 2.0 | 5.0 | 0.00 | 0.00 | 0.00 | 85 | 1005.8 |
| 20260508014004 | 71 | 39 | 5.0 | 7.0 | 0.00 | 0.00 | 0.00 | 82 | 1005.8 |
| 20260508012805 | 70 | 109 | 2.0 | 3.0 | 0.00 | 0.00 | 0.00 | 81 | 1005.9 |
| 20260508011603 | 69 | 40 | 5.0 | 6.0 | 0.00 | 0.00 | 0.00 | 82 | 1005.8 |
| 20260508010405 | 69 | 22 | 1.0 | 3.0 | 0.00 | 0.00 | 0.00 | 82 | 1005.9 |
| 20260508005208 | 69 | 286 | 2.0 | 2.0 | 0.00 | 0.00 | 0.00 | 83 | 1006.4 |
| 20260508004004 | 68 | 286 | 1.0 | 3.0 | 0.00 | 0.00 | 0.00 | 82 | 1006.5 |
| 20260508002804 | 67 | 285 | 2.0 | 3.0 | 0.00 | 0.00 | 0.00 | 84 | 1006.7 |
| 20260508001605 | 67 | 285 | 1.0 | 3.0 | 0.00 | 0.00 | 0.00 | 84 | 1007.2 |
| 20260508000407 | 67 | 285 | 0.0 | 0.0 | 0.00 | 0.00 | 0.00 | 86 | 1007.4 |
| 20260507235204 | 67 | 282 | 1.0 | 3.0 | 0.00 | 0.00 | 0.00 | 85 | 1007.3 |
| 20260507234008 | 65 | 252 | 0.0 | 1.0 | 0.00 | 0.00 | 0.00 | 86 | 1007.3 |
| 20260507232806 | 64 | 245 | 2.0 | 3.0 | 0.00 | 0.00 | 0.00 | 89 | 1007.2 |
| 20260507231606 | 63 | 259 | 1.0 | 2.0 | 0.00 | 0.00 | 0.00 | 92 | 1007.4 |
| 20260507230406 | 62 | 217 | 1.0 | 2.0 | 0.00 | 0.00 | 0.00 | 96 | 1007.4 |
| 20260507225206 | 61 | 265 | 0.0 | 1.0 | 0.00 | 0.00 | 0.00 | 96 | 1007.2 |
| 20260507224006 | 62 | 264 | 0.0 | 0.0 | 0.00 | 0.00 | 0.00 | 96 | 1007.1 |
| 20260507222809 | 61 | 220 | 2.0 | 2.0 | 0.00 | 0.00 | 0.00 | 96 | 1007.3 |
| 20260507221606 | 61 | 272 | 0.0 | 0.0 | 0.00 | 0.00 | 0.00 | 98 | 1007.4 |
| 20260507220405 | 61 | 273 | 2.0 | 2.0 | 0.00 | 0.00 | 0.00 | 98 | 1007.3 |
| 20260507215206 | 61 | 267 | 1.0 | 2.0 | 0.00 | 0.00 | 0.00 | 96 | 1007.6 |
| 20260507214006 | 61 | 260 | 0.0 | 1.0 | 0.00 | 0.00 | 0.00 | 95 | 1007.6 |
| 20260507212806 | 61 | 218 | 1.0 | 1.0 | 0.00 | 0.00 | 0.00 | 94 | 1007.6 |
| 20260507211605 | 61 | 222 | 1.0 | 2.0 | 0.00 | 0.00 | 0.00 | 95 | 1007.6 |
| 20260507210405 | 60 | 219 | 1.0 | 2.0 | 0.00 | 0.00 | 0.00 | 98 | 1007.2 |
| 20260507205205 | 60 | 284 | 3.0 | 5.0 | 0.00 | 0.00 | 0.00 | 99 | 1007.3 |
| 20260507204006 | 60 | 229 | 2.0 | 2.0 | 0.00 | 0.00 | 0.00 | 99 | 1007.3 |
| 20260507202807 | 60 | 257 | 1.0 | 2.0 | 0.00 | 0.00 | 0.00 | 99 | 1007.3 |
| 20260507201605 | 59 | 257 | 0.0 | 0.0 | 0.00 | 0.00 | 0.00 | 99 | 1007.3 |
| 20260507200405 | 60 | 257 | 1.0 | 2.0 | 0.00 | 0.00 | 0.00 | 99 | 1007.2 |
| 20260507195207 | 60 | 258 | 0.0 | 0.0 | 0.00 | 0.00 | 0.00 | 99 | 1007.3 |
| 20260507194006 | 59 | 258 | 1.0 | 1.0 | 0.00 | 0.00 | 0.00 | 99 | 1007.2 |
| 20260507192809 | 60 | 258 | 0.0 | 0.0 | 0.00 | 0.00 | 0.00 | 99 | 1007.4 |
| 20260507191605 | 60 | 258 | 1.0 | 2.0 | 0.00 | 0.00 | 0.00 | 99 | 1007.2 |
| 20260507190405 | 59 | 258 | 1.0 | 1.0 | 0.00 | 0.00 | 0.00 | 99 | 1007.2 |
| 20260507185207 | 60 | 258 | 1.0 | 2.0 | 0.00 | 0.00 | 0.00 | 99 | 1007.2 |
| 20260507184005 | 60 | 258 | 2.0 | 2.0 | 0.00 | 0.00 | 0.00 | 99 | 1007.2 |
| 20260507182806 | 60 | 258 | 0.0 | 0.0 | 0.00 | 0.00 | 0.00 | 99 | 1007.2 |
| 20260507181606 | 60 | 258 | 1.0 | 2.0 | 0.00 | 0.00 | 0.00 | 99 | 1007.3 |
| 20260507180405 | 60 | 192 | 1.0 | 2.0 | 0.00 | 0.00 | 0.00 | 99 | 1007.4 |
| 20260507175205 | 60 | 178 | 2.0 | 2.0 | 0.00 | 0.00 | 0.00 | 99 | 1007.4 |
| 20260507174005 | 60 | 263 | 2.0 | 2.0 | 0.00 | 0.00 | 0.00 | 99 | 1007.5 |
| 20260507172805 | 60 | 245 | 2.0 | 3.0 | 0.00 | 0.00 | 0.00 | 99 | 1007.6 |
| 20260507171606 | 60 | 242 | 1.0 | 2.0 | 0.00 | 0.00 | 0.00 | 99 | 1007.6 |
| 20260507170404 | 60 | 233 | 1.0 | 1.0 | 0.00 | 0.00 | 0.00 | 99 | 1007.6 |
| 20260507165205 | 60 | 193 | 0.0 | 2.0 | 0.00 | 0.00 | 0.00 | 99 | 1007.7 |
| 20260507164006 | 60 | 256 | 1.0 | 1.0 | 0.00 | 0.00 | 0.00 | 99 | 1007.8 |
| 20260507162807 | 61 | 256 | 0.0 | 1.0 | 0.00 | 0.00 | 0.00 | 99 | 1008.0 |
| 20260507161607 | 61 | 194 | 2.0 | 3.0 | 0.00 | 0.00 | 0.00 | 99 | 1008.0 |
| 20260507160404 | 61 | 156 | 2.0 | 2.0 | 0.00 | 0.00 | 0.00 | 99 | 1007.9 |
| 20260507155206 | 61 | 271 | 1.0 | 1.0 | 0.00 | 0.00 | 0.00 | 99 | 1008.2 |
| 20260507154007 | 62 | 209 | 1.0 | 1.0 | 0.00 | 0.00 | 0.00 | 99 | 1008.4 |
| 20260507152805 | 62 | 278 | 2.0 | 3.0 | 0.00 | 0.00 | 0.00 | 99 | 1008.5 |
| 20260507151604 | 62 | 179 | 2.0 | 2.0 | 0.00 | 0.00 | 0.00 | 99 | 1008.6 |
| 20260507150406 | 62 | 162 | 1.0 | 2.0 | 0.00 | 0.00 | 0.00 | 99 | 1008.8 |
| 20260507145205 | 62 | 258 | 1.0 | 1.0 | 0.00 | 0.00 | 0.00 | 99 | 1008.9 |
| 20260507144005 | 63 | 178 | 2.0 | 3.0 | 0.00 | 0.00 | 0.00 | 99 | 1008.9 |
| 20260507142807 | 63 | 226 | 5.0 | 5.0 | 0.00 | 0.00 | 0.00 | 99 | 1008.8 |
| 20260507141604 | 63 | 261 | 2.0 | 2.0 | 0.00 | 0.00 | 0.00 | 98 | 1008.9 |
| 20260507140404 | 64 | 250 | 1.0 | 1.0 | 0.00 | 0.00 | 0.00 | 97 | 1009.1 |
| 20260507135205 | 64 | 208 | 2.0 | 2.0 | 0.00 | 0.00 | 0.00 | 97 | 1009.2 |
| 20260507134006 | 64 | 309 | 1.0 | 2.0 | 0.00 | 0.00 | 0.00 | 97 | 1009.2 |
| 20260507132806 | 65 | 309 | 0.0 | 0.0 | 0.00 | 0.00 | 0.00 | 95 | 1009.1 |
| 20260507131605 | 65 | 309 | 1.0 | 2.0 | 0.00 | 0.00 | 0.00 | 96 | 1009.4 |
| 20260507130405 | 65 | 258 | 2.0 | 3.0 | 0.00 | 0.00 | 0.00 | 95 | 1009.2 |
| 20260507125206 | 65 | 229 | 1.0 | 2.0 | 0.00 | 0.00 | 0.00 | 94 | 1009.4 |